createdAt,value
2023-03-04T00:01:03.791Z,94161.80
2023-03-04T00:03:31.366Z,94155.80
2023-03-04T00:05:58.944Z,94154.20
2023-03-04T00:08:26.435Z,94163.80
2023-03-04T00:10:53.995Z,94165.20
2023-03-04T00:13:22.303Z,94162.40
2023-03-04T00:15:49.722Z,94156.80
2023-03-04T00:18:17.247Z,94159.60
2023-03-04T00:20:44.796Z,94153.40
2023-03-04T00:23:12.279Z,94147.80
2023-03-04T00:25:42.567Z,94140.20
2023-03-04T00:28:11.196Z,94142.80
2023-03-04T00:30:38.649Z,94138.80
2023-03-04T00:33:06.094Z,94137.20
2023-03-04T00:35:33.631Z,94135.40
2023-03-04T00:38:01.058Z,94135.20
2023-03-04T00:40:28.493Z,94123.00
2023-03-04T00:42:55.998Z,94115.00
2023-03-04T00:45:23.427Z,94112.20
2023-03-04T00:47:50.873Z,94107.60
2023-03-04T00:50:18.603Z,94106.00
2023-03-04T00:52:46.077Z,94101.60
2023-03-04T00:55:13.617Z,94102.40
2023-03-04T00:57:41.132Z,94096.40
2023-03-04T01:00:08.650Z,94091.40
2023-03-04T01:02:36.134Z,94093.60
2023-03-04T01:05:03.754Z,94094.60
2023-03-04T01:07:31.444Z,94094.20
2023-03-04T01:09:58.886Z,94096.60
2023-03-04T01:12:26.483Z,94092.40
2023-03-04T01:14:53.982Z,94084.60
2023-03-04T01:17:21.529Z,94089.00
2023-03-04T01:19:49.065Z,94086.20
2023-03-04T01:22:18.960Z,94067.80
2023-03-04T01:24:46.439Z,94071.20
2023-03-04T01:27:13.966Z,94068.60
2023-03-04T01:29:41.629Z,94063.00
2023-03-04T01:32:09.113Z,94060.20
2023-03-04T01:34:36.751Z,94057.20
2023-03-04T01:37:04.323Z,94055.40
2023-03-04T01:39:31.787Z,94050.60
2023-03-04T01:41:59.317Z,94051.80
2023-03-04T01:44:26.783Z,94051.60
2023-03-04T01:46:54.237Z,94047.20
2023-03-04T01:49:21.719Z,94047.00
2023-03-04T01:51:49.517Z,94048.80
2023-03-04T01:54:16.989Z,94039.60
2023-03-04T01:56:44.549Z,94038.20
2023-03-04T01:59:12.018Z,94038.60
2023-03-04T02:01:39.656Z,94033.80
2023-03-04T02:04:07.998Z,94034.00
2023-03-04T02:06:35.476Z,94031.00
2023-03-04T02:09:02.993Z,94028.40
2023-03-04T02:11:30.737Z,94027.20
2023-03-04T02:13:58.359Z,94027.00
2023-03-04T02:16:25.806Z,94024.00
2023-03-04T02:18:53.335Z,94017.20
2023-03-04T02:21:20.828Z,94017.80
2023-03-04T02:23:48.275Z,94018.80
2023-03-04T02:26:15.852Z,94019.80
2023-03-04T02:28:43.326Z,94013.00
2023-03-04T02:31:11.115Z,94018.80
2023-03-04T02:33:38.699Z,94010.40
2023-03-04T02:36:06.236Z,94007.80
2023-03-04T02:38:33.694Z,93998.20
2023-03-04T02:41:01.173Z,93995.00
2023-03-04T02:43:28.718Z,93992.20
2023-03-04T02:45:56.140Z,93993.60
2023-03-04T02:48:24.395Z,93992.20
2023-03-04T02:50:52.178Z,93990.40
2023-03-04T02:53:20.774Z,93988.40
2023-03-04T02:55:48.341Z,93984.20
2023-03-04T02:58:15.810Z,93984.20
2023-03-04T03:00:43.471Z,93973.60
2023-03-04T03:03:10.994Z,93968.00
2023-03-04T03:05:38.660Z,93964.80
2023-03-04T03:08:06.158Z,93966.20
2023-03-04T03:10:33.691Z,93958.20
2023-03-04T03:13:01.259Z,93957.40
2023-03-04T03:15:28.722Z,93957.60
2023-03-04T03:17:56.185Z,93956.80
2023-03-04T03:20:23.658Z,93951.60
2023-03-04T03:22:51.146Z,93949.40
2023-03-04T03:25:18.688Z,93955.80
2023-03-04T03:27:46.178Z,93951.60
2023-03-04T03:30:13.663Z,93946.20
2023-03-04T03:32:41.282Z,93949.40
2023-03-04T03:35:08.746Z,93949.40
2023-03-04T03:37:36.209Z,93941.40
2023-03-04T03:40:03.793Z,93937.80
2023-03-04T03:42:31.318Z,93936.80
2023-03-04T03:44:58.772Z,93934.40
2023-03-04T03:47:26.303Z,93932.40
2023-03-04T03:49:53.780Z,93932.00
2023-03-04T03:52:21.365Z,93927.00
2023-03-04T03:54:48.997Z,93920.80
2023-03-04T03:57:16.454Z,93916.60
2023-03-04T03:59:43.922Z,93916.80
2023-03-04T04:02:11.458Z,93915.20
2023-03-04T04:04:39.002Z,93912.80
2023-03-04T04:07:06.451Z,93915.60
2023-03-04T04:09:33.906Z,93912.60
2023-03-04T04:12:01.484Z,93908.40
2023-03-04T04:14:29.130Z,93903.40
2023-03-04T04:16:56.613Z,93905.40
2023-03-04T04:19:24.057Z,93903.60
2023-03-04T04:21:51.505Z,93896.20
2023-03-04T04:24:19.009Z,93895.80
2023-03-04T04:26:46.451Z,93903.40
2023-03-04T04:29:13.985Z,93897.20
2023-03-04T04:31:41.672Z,93890.00
2023-03-04T04:34:09.394Z,93894.40
2023-03-04T04:36:36.881Z,93890.80
2023-03-04T04:39:04.369Z,93894.00
2023-03-04T04:41:32.207Z,93897.80
2023-03-04T04:43:59.696Z,93895.40
2023-03-04T04:46:27.192Z,93889.80
2023-03-04T04:48:54.658Z,93894.00
2023-03-04T04:51:22.098Z,93897.40
2023-03-04T04:53:49.559Z,93895.40
2023-03-04T04:56:17.122Z,93894.80
2023-03-04T04:58:44.605Z,93892.60
2023-03-04T05:01:12.135Z,93890.60
2023-03-04T05:03:39.607Z,93885.20
2023-03-04T05:06:07.100Z,93884.40
2023-03-04T05:08:34.587Z,93879.80
2023-03-04T05:11:02.135Z,93878.00
2023-03-04T05:13:29.681Z,93878.80
2023-03-04T05:15:57.270Z,93874.80
2023-03-04T05:18:24.709Z,93888.20
2023-03-04T05:20:52.519Z,93889.20
2023-03-04T05:23:20.066Z,93887.20
2023-03-04T05:25:47.513Z,93885.80
2023-03-04T05:28:14.997Z,93884.40
2023-03-04T05:30:42.743Z,93883.00
2023-03-04T05:33:10.257Z,93880.40
2023-03-04T05:35:38.049Z,93878.20
2023-03-04T05:38:05.808Z,93875.80
2023-03-04T05:40:33.237Z,93879.00
2023-03-04T05:43:00.692Z,93877.00
2023-03-04T05:45:28.210Z,93873.60
2023-03-04T05:47:55.609Z,93869.80
2023-03-04T05:50:23.038Z,93869.00
2023-03-04T05:52:50.526Z,93868.20
2023-03-04T05:55:18.005Z,93868.20
2023-03-04T05:57:45.756Z,93861.40
2023-03-04T06:00:13.356Z,93857.60
2023-03-04T06:02:40.864Z,93858.40
2023-03-04T06:05:08.647Z,93861.00
2023-03-04T06:07:36.117Z,93855.40
2023-03-04T06:10:03.653Z,93864.00
2023-03-04T06:12:31.116Z,93859.80
2023-03-04T06:14:58.702Z,93863.60
2023-03-04T06:17:26.199Z,93864.60
2023-03-04T06:19:53.651Z,93865.60
2023-03-04T06:22:21.168Z,93868.80
2023-03-04T06:24:48.665Z,93872.40
2023-03-04T06:27:16.687Z,93869.40
2023-03-04T06:29:44.276Z,93868.00
2023-03-04T06:32:11.777Z,93866.80
2023-03-04T06:34:39.217Z,93863.80
2023-03-04T06:37:06.867Z,93873.40
2023-03-04T06:39:34.374Z,93869.80
2023-03-04T06:42:01.860Z,93873.40
2023-03-04T06:44:29.574Z,93876.40
2023-03-04T06:46:57.098Z,93867.40
2023-03-04T06:49:24.638Z,93869.40
2023-03-04T06:51:53.106Z,93872.40
2023-03-04T06:54:20.616Z,93870.20
2023-03-04T06:56:48.073Z,93873.00
2023-03-04T06:59:15.603Z,93870.00
2023-03-04T07:01:43.042Z,93867.40
2023-03-04T07:04:10.610Z,93864.20
2023-03-04T07:06:38.125Z,93861.40
2023-03-04T07:09:05.575Z,93859.00
2023-03-04T07:11:33.213Z,93861.00
2023-03-04T07:14:01.121Z,93859.20
2023-03-04T07:16:28.693Z,93852.20
2023-03-04T07:18:56.183Z,93849.80
2023-03-04T07:21:23.697Z,93854.00
2023-03-04T07:23:51.204Z,93849.80
2023-03-04T07:26:18.698Z,93847.40
2023-03-04T07:28:46.260Z,93845.00
2023-03-04T07:31:13.927Z,93845.80
2023-03-04T07:33:41.569Z,93846.60
2023-03-04T07:36:09.181Z,93840.80
2023-03-04T07:38:36.754Z,93838.80
2023-03-04T07:41:04.228Z,93826.20
2023-03-04T07:43:31.719Z,93821.80
2023-03-04T07:45:59.616Z,93823.00
2023-03-04T07:48:27.173Z,93811.40
2023-03-04T07:50:54.816Z,93815.00
2023-03-04T07:53:22.266Z,93810.40
2023-03-04T07:55:49.732Z,93809.40
2023-03-04T07:58:19.977Z,93807.40
2023-03-04T08:00:47.553Z,93805.80
2023-03-04T08:03:15.052Z,93799.20
2023-03-04T08:05:42.535Z,93800.00
2023-03-04T08:08:10.062Z,93797.40
2023-03-04T08:10:39.727Z,93793.60
2023-03-04T08:13:07.512Z,93786.60
2023-03-04T08:15:35.382Z,93788.00
2023-03-04T08:18:02.853Z,93784.40
2023-03-04T08:20:30.579Z,93782.00
2023-03-04T08:22:58.019Z,93781.20
2023-03-04T08:25:25.450Z,93772.60
2023-03-04T08:27:53.385Z,93774.00
2023-03-04T08:30:20.840Z,93767.40
2023-03-04T08:32:48.356Z,93770.80
2023-03-04T08:35:16.104Z,93767.60
2023-03-04T08:37:45.069Z,93772.40
2023-03-04T08:40:12.521Z,93768.00
2023-03-04T08:42:40.056Z,93762.40
2023-03-04T08:45:07.497Z,93763.00
2023-03-04T08:47:34.955Z,93757.00
2023-03-04T08:50:02.416Z,93755.60
2023-03-04T08:52:30.487Z,93746.40
2023-03-04T08:54:57.966Z,93738.80
2023-03-04T08:57:25.459Z,93736.20
2023-03-04T08:59:52.892Z,93726.00
2023-03-04T09:02:20.398Z,93725.00
2023-03-04T09:04:48.231Z,93719.40
2023-03-04T09:07:15.745Z,93713.00
2023-03-04T09:09:43.205Z,93710.60
2023-03-04T09:12:10.832Z,93703.60
2023-03-04T09:14:38.468Z,93702.40
2023-03-04T09:17:05.923Z,93699.60
2023-03-04T09:19:33.682Z,93696.60
2023-03-04T09:22:02.071Z,93694.80
2023-03-04T09:24:29.558Z,93691.80
2023-03-04T09:26:57.184Z,93692.20
2023-03-04T09:29:24.848Z,93684.60
2023-03-04T09:31:52.321Z,93678.40
2023-03-04T09:34:19.935Z,93673.20
2023-03-04T09:36:47.362Z,93675.20
2023-03-04T09:39:14.805Z,93665.40
2023-03-04T09:41:42.426Z,93655.00
2023-03-04T09:44:09.894Z,93653.60
2023-03-04T09:46:37.408Z,93652.20
2023-03-04T09:49:07.240Z,93651.60
2023-03-04T09:51:35.007Z,93653.40
2023-03-04T09:54:02.501Z,93655.00
2023-03-04T09:56:29.987Z,93653.80
2023-03-04T09:58:57.488Z,93653.60
2023-03-04T10:01:26.612Z,93650.20
2023-03-04T10:03:54.239Z,93651.60
2023-03-04T10:06:21.788Z,93654.80
2023-03-04T10:08:49.219Z,93651.60
2023-03-04T10:11:16.996Z,93654.40
2023-03-04T10:13:44.439Z,93653.40
2023-03-04T10:16:12.106Z,93657.20
2023-03-04T10:18:39.851Z,93658.00
2023-03-04T10:21:07.412Z,93658.80
2023-03-04T10:23:34.940Z,93670.40
2023-03-04T10:26:02.430Z,93661.00
2023-03-04T10:28:29.844Z,93636.00
2023-03-04T10:30:57.656Z,93680.80
2023-03-04T10:33:25.164Z,93682.40
2023-03-04T10:35:52.685Z,93694.40
2023-03-04T10:38:20.524Z,93691.20
2023-03-04T10:40:48.003Z,93692.80
2023-03-04T10:43:15.512Z,93693.20
2023-03-04T10:45:43.022Z,93700.40
2023-03-04T10:48:10.787Z,93691.00
2023-03-04T10:50:38.295Z,93696.20
2023-03-04T10:53:05.746Z,93705.20
2023-03-04T10:55:33.223Z,93709.20
2023-03-04T10:58:00.668Z,93709.60
2023-03-04T11:00:31.845Z,93705.80
2023-03-04T11:02:59.302Z,93713.40
2023-03-04T11:05:26.773Z,93709.80
2023-03-04T11:07:56.724Z,93711.60
2023-03-04T11:10:25.041Z,93718.40
2023-03-04T11:12:52.525Z,93725.40
2023-03-04T11:15:20.512Z,93724.80
2023-03-04T11:17:48.118Z,93723.80
2023-03-04T11:20:15.606Z,93713.20
2023-03-04T11:22:43.567Z,93714.80
2023-03-04T11:25:11.093Z,93716.40
2023-03-04T11:27:38.776Z,93723.00
2023-03-04T11:30:06.359Z,93727.80
2023-03-04T11:32:34.464Z,93721.80
2023-03-04T11:35:01.995Z,93731.40
2023-03-04T11:37:29.542Z,93735.40
2023-03-04T11:39:57.046Z,93736.60
2023-03-04T11:42:24.581Z,93739.20
2023-03-04T11:44:52.068Z,93741.00
2023-03-04T11:47:19.709Z,93738.80
2023-03-04T11:49:47.228Z,93734.20
2023-03-04T11:52:14.698Z,93743.40
2023-03-04T11:54:42.195Z,93741.20
2023-03-04T11:57:10.872Z,93747.00
2023-03-04T11:59:40.099Z,93752.60
2023-03-04T12:02:07.555Z,93741.20
2023-03-04T12:04:35.134Z,93744.60
2023-03-04T12:07:02.620Z,93735.80
2023-03-04T12:09:30.176Z,93743.60
2023-03-04T12:11:57.683Z,93747.20
2023-03-04T12:14:25.284Z,93747.80
2023-03-04T12:16:52.761Z,93740.20
2023-03-04T12:19:20.581Z,93744.40
2023-03-04T12:21:48.154Z,93742.80
2023-03-04T12:24:15.916Z,93734.40
2023-03-04T12:26:43.576Z,93734.40
2023-03-04T12:29:11.047Z,93729.40
2023-03-04T12:31:39.148Z,93734.40
2023-03-04T12:34:06.628Z,93726.20
2023-03-04T12:36:34.144Z,93732.80
2023-03-04T12:39:01.714Z,93738.60
2023-03-04T12:41:29.263Z,93732.20
2023-03-04T12:43:56.744Z,93730.60
2023-03-04T12:46:24.325Z,93733.40
2023-03-04T12:48:52.021Z,93742.80
2023-03-04T12:51:19.436Z,93732.20
2023-03-04T12:53:46.980Z,93731.00
2023-03-04T12:56:14.446Z,93747.80
2023-03-04T12:58:41.907Z,93737.40
2023-03-04T13:01:09.563Z,93750.00
2023-03-04T13:03:37.218Z,93748.80
2023-03-04T13:06:04.778Z,93742.40
2023-03-04T13:08:32.419Z,93752.00
2023-03-04T13:10:59.929Z,93746.20
2023-03-04T13:13:28.954Z,93737.60
2023-03-04T13:15:56.938Z,93740.80
2023-03-04T13:18:24.678Z,93735.00
2023-03-04T13:20:53.397Z,93735.00
2023-03-04T13:23:20.844Z,93743.00
2023-03-04T13:25:51.338Z,93736.20
2023-03-04T13:28:19.199Z,93738.60
2023-03-04T13:30:46.682Z,93732.40
2023-03-04T13:33:14.389Z,93729.80
2023-03-04T13:35:41.880Z,93733.40
2023-03-04T13:38:11.160Z,93731.40
2023-03-04T13:40:38.652Z,93721.00
2023-03-04T13:43:06.109Z,93713.20
2023-03-04T13:45:33.675Z,93724.00
2023-03-04T13:48:01.307Z,93726.60
2023-03-04T13:50:29.957Z,93724.20
2023-03-04T13:52:57.447Z,93720.80
2023-03-04T13:55:24.972Z,93726.60
2023-03-04T13:57:52.773Z,93736.00
2023-03-04T14:00:20.256Z,93730.00
2023-03-04T14:02:47.765Z,93731.60
2023-03-04T14:05:15.284Z,93723.60
2023-03-04T14:07:43.284Z,93721.40
2023-03-04T14:10:10.732Z,93723.80
2023-03-04T14:12:38.314Z,93717.20
2023-03-04T14:15:05.872Z,93724.40
2023-03-04T14:17:33.414Z,93716.00
2023-03-04T14:20:00.932Z,93725.20
2023-03-04T14:22:28.572Z,93718.00
2023-03-04T14:24:56.107Z,93720.40
2023-03-04T14:27:23.599Z,93723.60
2023-03-04T14:29:51.107Z,93728.00
2023-03-04T14:32:18.593Z,93727.60
2023-03-04T14:34:46.040Z,93721.60
2023-03-04T14:37:13.524Z,93712.00
2023-03-04T14:39:40.984Z,93715.20
2023-03-04T14:42:08.406Z,93709.60
2023-03-04T14:44:36.208Z,93718.60
2023-03-04T14:47:07.958Z,93718.60
2023-03-04T14:49:35.762Z,93723.20
2023-03-04T14:52:03.356Z,93719.80
2023-03-04T14:54:30.958Z,93721.80
2023-03-04T14:56:58.467Z,93730.00
2023-03-04T14:59:26.233Z,93730.00
2023-03-04T15:01:53.764Z,93731.80
2023-03-04T15:04:21.298Z,93731.80
2023-03-04T15:06:48.877Z,93741.40
2023-03-04T15:09:16.459Z,93740.20
2023-03-04T15:11:44.198Z,93743.80
2023-03-04T15:14:11.723Z,93745.00
2023-03-04T15:16:39.241Z,93749.40
2023-03-04T15:19:06.843Z,93747.00
2023-03-04T15:21:34.440Z,93755.00
2023-03-04T15:24:03.642Z,93757.80
2023-03-04T15:26:31.129Z,93754.80
2023-03-04T15:28:58.637Z,93755.20
2023-03-04T15:31:26.080Z,93753.20
2023-03-04T15:33:53.741Z,93754.20
2023-03-04T15:36:21.394Z,93760.80
2023-03-04T15:38:48.867Z,93758.20
2023-03-04T15:41:16.523Z,93758.80
2023-03-04T15:43:44.128Z,93763.00
2023-03-04T15:46:11.640Z,93759.20
2023-03-04T15:48:39.167Z,93758.60
2023-03-04T15:51:06.700Z,93761.20
2023-03-04T15:53:34.230Z,93764.40
2023-03-04T15:56:01.716Z,93763.00
2023-03-04T15:58:29.210Z,93761.60
2023-03-04T16:00:56.731Z,93760.40
2023-03-04T16:03:24.370Z,93760.80
2023-03-04T16:05:52.824Z,93763.20
2023-03-04T16:08:20.406Z,93762.80
2023-03-04T16:10:48.507Z,93763.00
2023-03-04T16:13:16.181Z,93760.00
2023-03-04T16:15:43.847Z,93762.40
2023-03-04T16:18:11.425Z,93758.00
2023-03-04T16:20:39.004Z,93768.40
2023-03-04T16:23:06.504Z,93768.60
2023-03-04T16:25:34.129Z,93767.20
2023-03-04T16:28:04.053Z,93767.40
2023-03-04T16:30:31.593Z,93774.20
2023-03-04T16:32:59.125Z,93772.40
2023-03-04T16:35:27.872Z,93776.00
2023-03-04T16:37:55.396Z,93780.00
2023-03-04T16:40:22.851Z,93782.40
2023-03-04T16:42:50.434Z,93786.20
2023-03-04T16:45:18.021Z,93790.40
2023-03-04T16:47:45.801Z,93788.60
2023-03-04T16:50:14.604Z,93790.00
2023-03-04T16:52:42.199Z,93795.00
2023-03-04T16:55:09.836Z,93804.80
2023-03-04T16:57:37.624Z,93805.80
2023-03-04T17:00:06.622Z,93807.40
2023-03-04T17:02:34.113Z,93811.80
2023-03-04T17:05:01.727Z,93813.60
2023-03-04T17:07:29.386Z,93814.00
2023-03-04T17:09:56.946Z,93816.20
2023-03-04T17:12:24.489Z,93818.80
2023-03-04T17:14:55.031Z,93820.80
2023-03-04T17:17:22.619Z,93826.60
2023-03-04T17:19:50.286Z,93827.20
2023-03-04T17:22:17.781Z,93827.40
2023-03-04T17:24:45.269Z,93818.40
2023-03-04T17:27:12.859Z,93819.60
2023-03-04T17:29:40.308Z,93813.80
2023-03-04T17:32:07.862Z,93812.80
2023-03-04T17:34:35.324Z,93813.20
2023-03-04T17:37:02.993Z,93811.40
2023-03-04T17:39:30.465Z,93803.60
2023-03-04T17:41:58.321Z,93804.60
2023-03-04T17:44:25.782Z,93799.80
2023-03-04T17:46:53.332Z,93798.60
2023-03-04T17:49:20.889Z,93800.60
2023-03-04T17:51:48.324Z,93795.20
2023-03-04T17:54:15.883Z,93789.80
2023-03-04T17:56:44.479Z,93794.00
2023-03-04T17:59:11.960Z,93791.00
2023-03-04T18:01:39.559Z,93785.80
2023-03-04T18:04:07.150Z,93781.60
2023-03-04T18:06:34.641Z,93790.60
2023-03-04T18:09:02.064Z,93780.80
2023-03-04T18:11:29.588Z,93774.00
2023-03-04T18:13:57.078Z,93768.80
2023-03-04T18:16:26.981Z,93768.80
2023-03-04T18:18:54.940Z,93765.80
2023-03-04T18:21:22.451Z,93769.60
2023-03-04T18:23:49.890Z,93768.80
2023-03-04T18:26:20.103Z,93770.80
2023-03-04T18:28:48.656Z,93766.20
2023-03-04T18:31:16.155Z,93775.60
2023-03-04T18:33:43.766Z,93767.40
2023-03-04T18:36:11.766Z,93766.40
2023-03-04T18:38:39.271Z,93768.20
2023-03-04T18:41:06.731Z,93764.60
2023-03-04T18:43:34.382Z,93764.80
2023-03-04T18:46:01.932Z,93759.60
2023-03-04T18:48:29.580Z,93759.60
2023-03-04T18:50:58.389Z,93758.40
2023-03-04T18:53:25.830Z,93756.80
2023-03-04T18:55:53.767Z,93753.40
2023-03-04T18:58:21.336Z,93752.20
2023-03-04T19:00:48.817Z,93748.80
2023-03-04T19:03:16.480Z,93752.60
2023-03-04T19:05:43.990Z,93751.40
2023-03-04T19:08:11.624Z,93749.00
2023-03-04T19:10:39.569Z,93745.60
2023-03-04T19:13:07.184Z,93740.80
2023-03-04T19:15:34.757Z,93737.00
2023-03-04T19:18:02.357Z,93740.00
2023-03-04T19:20:30.014Z,93738.00
2023-03-04T19:22:57.525Z,93735.80
2023-03-04T19:25:25.055Z,93729.40
2023-03-04T19:27:55.402Z,93724.80
2023-03-04T19:30:23.152Z,93726.60
2023-03-04T19:32:50.794Z,93731.80
2023-03-04T19:35:18.440Z,93730.60
2023-03-04T19:37:46.069Z,93727.00
2023-03-04T19:40:13.948Z,93729.20
2023-03-04T19:42:41.567Z,93731.20
2023-03-04T19:45:11.963Z,93728.00
2023-03-04T19:47:39.706Z,93735.80
2023-03-04T19:50:09.898Z,93738.20
2023-03-04T19:52:37.622Z,93739.40
2023-03-04T19:55:05.358Z,93737.20
2023-03-04T19:57:33.375Z,93739.60
2023-03-04T20:00:01.063Z,93738.80
2023-03-04T20:02:29.084Z,93740.60
2023-03-04T20:04:57.263Z,93735.40
2023-03-04T20:07:24.940Z,93740.80
2023-03-04T20:09:55.763Z,93743.60
2023-03-04T20:12:31.914Z,93744.60
2023-03-04T20:15:20.471Z,93749.00
2023-03-04T20:17:53.394Z,93746.40
2023-03-04T20:20:33.652Z,93746.40
2023-03-04T20:23:35.213Z,93747.20
2023-03-04T20:26:13.921Z,93748.20
2023-03-04T20:28:57.087Z,93746.80
2023-03-04T20:32:33.264Z,93752.20
2023-03-04T20:35:06.337Z,93749.00
2023-03-04T20:37:36.223Z,93747.20
2023-03-04T20:40:04.083Z,93747.80
2023-03-04T20:42:32.178Z,93747.40
2023-03-04T20:44:59.989Z,93742.20
2023-03-04T20:47:27.494Z,93742.20
2023-03-04T20:49:55.084Z,93735.00
2023-03-04T20:52:22.757Z,93733.00
2023-03-04T20:54:50.333Z,93726.60
2023-03-04T20:57:17.912Z,93724.80
2023-03-04T20:59:45.679Z,93724.60
2023-03-04T21:02:13.213Z,93719.20
2023-03-04T21:04:41.032Z,93717.80
2023-03-04T21:07:08.686Z,93712.60
2023-03-04T21:09:36.213Z,93711.60
2023-03-04T21:12:03.996Z,93711.00
2023-03-04T21:14:31.719Z,93708.00
2023-03-04T21:16:59.338Z,93711.80
2023-03-04T21:19:27.507Z,93705.60
2023-03-04T21:21:55.378Z,93708.80
2023-03-04T21:24:22.849Z,93705.20
2023-03-04T21:26:50.369Z,93705.80
2023-03-04T21:29:17.992Z,93705.00
2023-03-04T21:31:45.755Z,93699.60
2023-03-04T21:34:13.591Z,93695.80
2023-03-04T21:36:41.153Z,93692.40
2023-03-04T21:39:08.743Z,93693.60
2023-03-04T21:41:36.310Z,93689.40
2023-03-04T21:44:04.146Z,93690.00
2023-03-04T21:46:31.714Z,93691.60
2023-03-04T21:48:59.201Z,93691.00
2023-03-04T21:51:26.924Z,93695.20
2023-03-04T21:53:54.463Z,93695.80
2023-03-04T21:56:21.895Z,93695.60
2023-03-04T21:58:49.529Z,93690.60
2023-03-04T22:01:17.068Z,93696.40
2023-03-04T22:03:44.598Z,93693.20
2023-03-04T22:06:12.239Z,93687.60
2023-03-04T22:08:39.972Z,93690.80
2023-03-04T22:11:07.655Z,93692.40
2023-03-04T22:13:35.330Z,93691.40
2023-03-04T22:16:02.882Z,93690.40
2023-03-04T22:18:30.448Z,93688.20
2023-03-04T22:20:58.047Z,93684.00
2023-03-04T22:23:25.518Z,93683.60
2023-03-04T22:25:53.083Z,93677.60
2023-03-04T22:28:20.935Z,93673.20
2023-03-04T22:30:48.520Z,93672.40
2023-03-04T22:33:16.070Z,93673.80
2023-03-04T22:35:44.379Z,93675.60
2023-03-04T22:38:12.115Z,93675.00
2023-03-04T22:40:39.636Z,93673.60
2023-03-04T22:43:07.149Z,93673.40
2023-03-04T22:45:34.756Z,93671.60
2023-03-04T22:48:02.573Z,93674.00
2023-03-04T22:50:30.091Z,93677.80
2023-03-04T22:52:57.676Z,93675.80
2023-03-04T22:55:25.178Z,93679.40
2023-03-04T22:57:53.039Z,93676.40
2023-03-04T23:00:20.693Z,93681.60
2023-03-04T23:02:48.166Z,93677.40
2023-03-04T23:05:15.962Z,93679.80
2023-03-04T23:07:43.514Z,93680.00
2023-03-04T23:10:11.117Z,93682.40
2023-03-04T23:12:38.659Z,93680.20
2023-03-04T23:15:06.510Z,93684.40
2023-03-04T23:17:34.093Z,93683.00
2023-03-04T23:20:01.775Z,93681.00
2023-03-04T23:22:29.251Z,93677.00
2023-03-04T23:24:57.719Z,93670.00
2023-03-04T23:27:25.254Z,93677.00
2023-03-04T23:29:52.744Z,93682.00
2023-03-04T23:32:20.285Z,93681.60
2023-03-04T23:34:53.353Z,93684.00
2023-03-04T23:37:21.068Z,93686.40
2023-03-04T23:39:48.612Z,93687.60
2023-03-04T23:42:16.298Z,93688.20
2023-03-04T23:44:43.839Z,93684.00
2023-03-04T23:47:11.472Z,93680.40
2023-03-04T23:49:39.328Z,93683.20
2023-03-04T23:52:06.801Z,93683.20
2023-03-04T23:54:34.459Z,93683.00
2023-03-04T23:57:02.005Z,93685.40
2023-03-04T23:59:29.836Z,93678.80
